sensor_id;sensor_type;location;lat;lon;timestamp;temperature;humidity
67942;SHT31;54731;42.600;23.476;2023-01-28T00:02:23;-1.17;85.77
67942;SHT31;54731;42.600;23.476;2023-01-28T00:04:48;-1.17;85.77
67942;SHT31;54731;42.600;23.476;2023-01-28T00:07:14;-1.20;85.77
67942;SHT31;54731;42.600;23.476;2023-01-28T00:09:39;-1.16;85.74
67942;SHT31;54731;42.600;23.476;2023-01-28T00:12:05;-1.19;85.51
67942;SHT31;54731;42.600;23.476;2023-01-28T00:14:30;-1.19;85.50
67942;SHT31;54731;42.600;23.476;2023-01-28T00:16:55;-1.17;85.43
67942;SHT31;54731;42.600;23.476;2023-01-28T00:19:21;-1.17;85.59
67942;SHT31;54731;42.600;23.476;2023-01-28T00:21:46;-1.15;85.38
67942;SHT31;54731;42.600;23.476;2023-01-28T00:24:11;-1.17;85.38
67942;SHT31;54731;42.600;23.476;2023-01-28T00:26:37;-1.16;85.38
67942;SHT31;54731;42.600;23.476;2023-01-28T00:29:02;-1.12;85.17
67942;SHT31;54731;42.600;23.476;2023-01-28T00:31:27;-1.13;85.20
67942;SHT31;54731;42.600;23.476;2023-01-28T00:33:54;-1.12;84.93
67942;SHT31;54731;42.600;23.476;2023-01-28T00:36:21;-1.13;85.03
67942;SHT31;54731;42.600;23.476;2023-01-28T00:38:51;-1.15;85.24
67942;SHT31;54731;42.600;23.476;2023-01-28T00:41:18;-1.15;84.97
67942;SHT31;54731;42.600;23.476;2023-01-28T00:43:44;-1.13;84.93
67942;SHT31;54731;42.600;23.476;2023-01-28T00:46:10;-1.12;84.90
67942;SHT31;54731;42.600;23.476;2023-01-28T00:48:37;-1.09;84.88
67942;SHT31;54731;42.600;23.476;2023-01-28T00:51:03;-1.12;84.73
67942;SHT31;54731;42.600;23.476;2023-01-28T00:53:29;-1.13;84.93
67942;SHT31;54731;42.600;23.476;2023-01-28T00:55:54;-1.13;84.81
67942;SHT31;54731;42.600;23.476;2023-01-28T00:58:20;-1.05;84.72
67942;SHT31;54731;42.600;23.476;2023-01-28T01:00:45;-1.05;84.57
67942;SHT31;54731;42.600;23.476;2023-01-28T01:03:11;-1.08;84.68
67942;SHT31;54731;42.600;23.476;2023-01-28T01:05:37;-1.11;84.72
67942;SHT31;54731;42.600;23.476;2023-01-28T01:08:02;-1.11;85.01
67942;SHT31;54731;42.600;23.476;2023-01-28T01:10:28;-1.05;84.97
67942;SHT31;54731;42.600;23.476;2023-01-28T01:12:53;-0.99;84.69
67942;SHT31;54731;42.600;23.476;2023-01-28T01:15:18;-0.98;84.37
67942;SHT31;54731;42.600;23.476;2023-01-28T01:17:48;-1.08;84.40
67942;SHT31;54731;42.600;23.476;2023-01-28T01:20:36;-1.08;84.57
67942;SHT31;54731;42.600;23.476;2023-01-28T01:23:00;-1.08;84.82
67942;SHT31;54731;42.600;23.476;2023-01-28T01:25:26;-1.06;84.68
67942;SHT31;54731;42.600;23.476;2023-01-28T01:27:51;-1.05;84.70
67942;SHT31;54731;42.600;23.476;2023-01-28T01:30:16;-1.02;84.53
67942;SHT31;54731;42.600;23.476;2023-01-28T01:32:42;-1.13;84.69
67942;SHT31;54731;42.600;23.476;2023-01-28T01:35:08;-1.15;84.74
67942;SHT31;54731;42.600;23.476;2023-01-28T01:37:34;-1.12;85.00
67942;SHT31;54731;42.600;23.476;2023-01-28T01:40:01;-1.19;85.05
67942;SHT31;54731;42.600;23.476;2023-01-28T01:42:26;-1.15;85.16
67942;SHT31;54731;42.600;23.476;2023-01-28T01:47:24;-1.11;85.00
67942;SHT31;54731;42.600;23.476;2023-01-28T01:49:51;-1.08;84.84
67942;SHT31;54731;42.600;23.476;2023-01-28T01:52:23;-1.08;84.88
67942;SHT31;54731;42.600;23.476;2023-01-28T01:54:52;-1.17;84.89
67942;SHT31;54731;42.600;23.476;2023-01-28T01:57:24;-1.22;85.25
67942;SHT31;54731;42.600;23.476;2023-01-28T01:59:51;-1.23;85.29
67942;SHT31;54731;42.600;23.476;2023-01-28T02:02:16;-1.23;85.38
67942;SHT31;54731;42.600;23.476;2023-01-28T02:04:43;-1.28;85.40
67942;SHT31;54731;42.600;23.476;2023-01-28T02:07:11;-1.20;85.55
67942;SHT31;54731;42.600;23.476;2023-01-28T02:09:37;-1.17;85.51
67942;SHT31;54731;42.600;23.476;2023-01-28T02:12:16;-1.28;85.57
67942;SHT31;54731;42.600;23.476;2023-01-28T02:14:45;-1.20;85.58
67942;SHT31;54731;42.600;23.476;2023-01-28T02:17:12;-1.17;85.53
67942;SHT31;54731;42.600;23.476;2023-01-28T02:19:43;-1.13;85.24
67942;SHT31;54731;42.600;23.476;2023-01-28T02:30:21;-1.12;84.94
67942;SHT31;54731;42.600;23.476;2023-01-28T02:32:53;-1.17;85.16
67942;SHT31;54731;42.600;23.476;2023-01-28T02:40:19;-1.15;85.06
67942;SHT31;54731;42.600;23.476;2023-01-28T02:42:45;-1.19;85.11
67942;SHT31;54731;42.600;23.476;2023-01-28T02:45:23;-1.17;85.15
67942;SHT31;54731;42.600;23.476;2023-01-28T02:47:49;-1.16;85.11
67942;SHT31;54731;42.600;23.476;2023-01-28T02:50:17;-1.15;84.89
67942;SHT31;54731;42.600;23.476;2023-01-28T02:55:48;-1.17;85.16
67942;SHT31;54731;42.600;23.476;2023-01-28T02:58:38;-1.16;84.83
67942;SHT31;54731;42.600;23.476;2023-01-28T03:03:39;-1.20;84.98
67942;SHT31;54731;42.600;23.476;2023-01-28T03:06:09;-1.17;85.00
67942;SHT31;54731;42.600;23.476;2023-01-28T03:08:43;-1.19;85.00
67942;SHT31;54731;42.600;23.476;2023-01-28T03:11:09;-1.17;84.89
67942;SHT31;54731;42.600;23.476;2023-01-28T03:13:36;-1.28;85.08
67942;SHT31;54731;42.600;23.476;2023-01-28T03:16:02;-1.31;85.27
67942;SHT31;54731;42.600;23.476;2023-01-28T03:18:34;-1.35;85.38
67942;SHT31;54731;42.600;23.476;2023-01-28T03:21:11;-1.28;85.09
67942;SHT31;54731;42.600;23.476;2023-01-28T03:23:44;-1.33;85.21
67942;SHT31;54731;42.600;23.476;2023-01-28T03:26:13;-1.35;85.15
67942;SHT31;54731;42.600;23.476;2023-01-28T03:28:41;-1.38;85.27
67942;SHT31;54731;42.600;23.476;2023-01-28T03:31:12;-1.42;85.45
67942;SHT31;54731;42.600;23.476;2023-01-28T03:33:39;-1.38;85.34
67942;SHT31;54731;42.600;23.476;2023-01-28T03:36:06;-1.32;85.11
67942;SHT31;54731;42.600;23.476;2023-01-28T03:38:31;-1.35;85.14
67942;SHT31;54731;42.600;23.476;2023-01-28T03:40:59;-1.42;85.46
67942;SHT31;54731;42.600;23.476;2023-01-28T03:43:25;-1.36;85.44
67942;SHT31;54731;42.600;23.476;2023-01-28T03:45:50;-1.36;85.33
67942;SHT31;54731;42.600;23.476;2023-01-28T03:48:20;-1.35;85.16
67942;SHT31;54731;42.600;23.476;2023-01-28T03:50:47;-1.32;85.13
67942;SHT31;54731;42.600;23.476;2023-01-28T03:53:14;-1.32;84.89
67942;SHT31;54731;42.600;23.476;2023-01-28T03:55:42;-1.33;85.17
67942;SHT31;54731;42.600;23.476;2023-01-28T03:58:08;-1.33;85.11
67942;SHT31;54731;42.600;23.476;2023-01-28T04:00:34;-1.36;85.29
67942;SHT31;54731;42.600;23.476;2023-01-28T04:02:59;-1.33;85.08
67942;SHT31;54731;42.600;23.476;2023-01-28T04:05:25;-1.38;85.12
67942;SHT31;54731;42.600;23.476;2023-01-28T04:07:54;-1.43;85.33
67942;SHT31;54731;42.600;23.476;2023-01-28T04:10:19;-1.39;85.48
67942;SHT31;54731;42.600;23.476;2023-01-28T04:12:45;-1.29;85.36
67942;SHT31;54731;42.600;23.476;2023-01-28T04:15:10;-1.35;85.25
67942;SHT31;54731;42.600;23.476;2023-01-28T04:17:35;-1.33;85.29
67942;SHT31;54731;42.600;23.476;2023-01-28T04:20:01;-1.38;85.28
67942;SHT31;54731;42.600;23.476;2023-01-28T04:22:26;-1.39;85.22
67942;SHT31;54731;42.600;23.476;2023-01-28T04:24:51;-1.36;84.88
67942;SHT31;54731;42.600;23.476;2023-01-28T04:27:17;-1.39;84.98
67942;SHT31;54731;42.600;23.476;2023-01-28T04:29:42;-1.35;84.99
67942;SHT31;54731;42.600;23.476;2023-01-28T04:32:07;-1.36;84.73
67942;SHT31;54731;42.600;23.476;2023-01-28T04:34:32;-1.42;84.46
67942;SHT31;54731;42.600;23.476;2023-01-28T04:36:58;-1.38;84.54
67942;SHT31;54731;42.600;23.476;2023-01-28T04:39:23;-1.39;84.31
67942;SHT31;54731;42.600;23.476;2023-01-28T04:41:48;-1.47;84.47
67942;SHT31;54731;42.600;23.476;2023-01-28T04:44:14;-1.44;84.73
67942;SHT31;54731;42.600;23.476;2023-01-28T04:46:39;-1.38;84.48
67942;SHT31;54731;42.600;23.476;2023-01-28T04:49:04;-1.53;84.78
67942;SHT31;54731;42.600;23.476;2023-01-28T04:51:29;-1.50;84.78
67942;SHT31;54731;42.600;23.476;2023-01-28T04:53:55;-1.52;84.58
67942;SHT31;54731;42.600;23.476;2023-01-28T04:56:20;-1.47;84.49
67942;SHT31;54731;42.600;23.476;2023-01-28T04:58:45;-1.56;84.42
67942;SHT31;54731;42.600;23.476;2023-01-28T05:01:11;-1.60;84.58
67942;SHT31;54731;42.600;23.476;2023-01-28T05:03:36;-1.53;84.55
67942;SHT31;54731;42.600;23.476;2023-01-28T05:06:01;-1.57;84.75
67942;SHT31;54731;42.600;23.476;2023-01-28T05:08:26;-1.62;84.91
67942;SHT31;54731;42.600;23.476;2023-01-28T05:10:52;-1.59;84.77
67942;SHT31;54731;42.600;23.476;2023-01-28T05:13:17;-1.57;84.91
67942;SHT31;54731;42.600;23.476;2023-01-28T05:15:42;-1.63;84.76
67942;SHT31;54731;42.600;23.476;2023-01-28T05:18:07;-1.57;84.80
67942;SHT31;54731;42.600;23.476;2023-01-28T05:20:33;-1.62;84.86
67942;SHT31;54731;42.600;23.476;2023-01-28T05:22:58;-1.60;84.82
67942;SHT31;54731;42.600;23.476;2023-01-28T05:25:23;-1.67;85.13
67942;SHT31;54731;42.600;23.476;2023-01-28T05:27:52;-1.62;85.21
67942;SHT31;54731;42.600;23.476;2023-01-28T05:30:18;-1.59;84.89
67942;SHT31;54731;42.600;23.476;2023-01-28T05:32:43;-1.57;84.68
67942;SHT31;54731;42.600;23.476;2023-01-28T05:35:09;-1.54;84.60
67942;SHT31;54731;42.600;23.476;2023-01-28T05:37:34;-1.56;84.35
67942;SHT31;54731;42.600;23.476;2023-01-28T05:39:59;-1.54;84.38
67942;SHT31;54731;42.600;23.476;2023-01-28T05:42:25;-1.56;84.25
67942;SHT31;54731;42.600;23.476;2023-01-28T05:44:50;-1.57;84.43
67942;SHT31;54731;42.600;23.476;2023-01-28T05:47:15;-1.56;84.39
67942;SHT31;54731;42.600;23.476;2023-01-28T05:49:40;-1.62;84.43
67942;SHT31;54731;42.600;23.476;2023-01-28T05:52:06;-1.59;84.49
67942;SHT31;54731;42.600;23.476;2023-01-28T05:54:31;-1.59;84.52
67942;SHT31;54731;42.600;23.476;2023-01-28T05:56:56;-1.60;84.40
67942;SHT31;54731;42.600;23.476;2023-01-28T05:59:22;-1.50;84.23
67942;SHT31;54731;42.600;23.476;2023-01-28T06:01:47;-1.53;84.09
67942;SHT31;54731;42.600;23.476;2023-01-28T06:04:12;-1.49;84.21
67942;SHT31;54731;42.600;23.476;2023-01-28T06:06:38;-1.46;84.17
67942;SHT31;54731;42.600;23.476;2023-01-28T06:09:03;-1.50;83.87
67942;SHT31;54731;42.600;23.476;2023-01-28T06:11:28;-1.52;83.94
67942;SHT31;54731;42.600;23.476;2023-01-28T06:13:53;-1.47;83.94
67942;SHT31;54731;42.600;23.476;2023-01-28T06:16:19;-1.44;83.90
67942;SHT31;54731;42.600;23.476;2023-01-28T06:18:44;-1.49;83.93
67942;SHT31;54731;42.600;23.476;2023-01-28T06:21:09;-1.40;83.87
67942;SHT31;54731;42.600;23.476;2023-01-28T06:23:35;-1.42;83.78
67942;SHT31;54731;42.600;23.476;2023-01-28T06:26:01;-1.40;83.83
67942;SHT31;54731;42.600;23.476;2023-01-28T06:28:26;-1.40;83.86
67942;SHT31;54731;42.600;23.476;2023-01-28T06:30:52;-1.49;83.89
67942;SHT31;54731;42.600;23.476;2023-01-28T06:33:18;-1.42;83.72
67942;SHT31;54731;42.600;23.476;2023-01-28T06:35:44;-1.46;83.89
67942;SHT31;54731;42.600;23.476;2023-01-28T06:38:10;-1.38;84.18
67942;SHT31;54731;42.600;23.476;2023-01-28T06:40:36;-1.39;83.82
67942;SHT31;54731;42.600;23.476;2023-01-28T06:43:02;-1.36;83.72
67942;SHT31;54731;42.600;23.476;2023-01-28T06:45:27;-1.35;83.83
67942;SHT31;54731;42.600;23.476;2023-01-28T06:47:53;-1.32;83.72
67942;SHT31;54731;42.600;23.476;2023-01-28T06:50:18;-1.33;83.72
67942;SHT31;54731;42.600;23.476;2023-01-28T06:52:43;-1.29;83.85
67942;SHT31;54731;42.600;23.476;2023-01-28T06:55:09;-1.33;83.90
67942;SHT31;54731;42.600;23.476;2023-01-28T06:57:37;-1.28;83.92
67942;SHT31;54731;42.600;23.476;2023-01-28T07:00:02;-1.19;83.34
67942;SHT31;54731;42.600;23.476;2023-01-28T07:02:28;-1.23;83.59
67942;SHT31;54731;42.600;23.476;2023-01-28T07:04:53;-1.26;84.06
67942;SHT31;54731;42.600;23.476;2023-01-28T07:07:18;-1.16;83.55
67942;SHT31;54731;42.600;23.476;2023-01-28T07:09:44;-1.26;83.70
67942;SHT31;54731;42.600;23.476;2023-01-28T07:12:09;-1.15;83.83
67942;SHT31;54731;42.600;23.476;2023-01-28T07:14:34;-1.13;83.23
67942;SHT31;54731;42.600;23.476;2023-01-28T07:17:00;-1.17;83.16
67942;SHT31;54731;42.600;23.476;2023-01-28T07:19:25;-1.16;83.02
67942;SHT31;54731;42.600;23.476;2023-01-28T07:21:50;-1.20;83.39
67942;SHT31;54731;42.600;23.476;2023-01-28T07:24:15;-1.20;83.43
67942;SHT31;54731;42.600;23.476;2023-01-28T07:26:41;-1.23;83.65
67942;SHT31;54731;42.600;23.476;2023-01-28T07:29:07;-1.25;83.72
67942;SHT31;54731;42.600;23.476;2023-01-28T07:31:33;-1.19;83.25
67942;SHT31;54731;42.600;23.476;2023-01-28T07:33:58;-1.20;83.43
67942;SHT31;54731;42.600;23.476;2023-01-28T07:36:23;-1.23;83.44
67942;SHT31;54731;42.600;23.476;2023-01-28T07:38:48;-1.22;83.76
67942;SHT31;54731;42.600;23.476;2023-01-28T07:41:14;-1.11;83.61
67942;SHT31;54731;42.600;23.476;2023-01-28T07:43:39;-1.03;83.07
67942;SHT31;54731;42.600;23.476;2023-01-28T07:46:04;-1.05;83.04
67942;SHT31;54731;42.600;23.476;2023-01-28T07:48:30;-1.06;82.88
67942;SHT31;54731;42.600;23.476;2023-01-28T07:50:58;-0.99;82.65
67942;SHT31;54731;42.600;23.476;2023-01-28T07:53:23;-1.01;82.77
67942;SHT31;54731;42.600;23.476;2023-01-28T07:55:48;-0.92;82.65
67942;SHT31;54731;42.600;23.476;2023-01-28T07:58:14;-0.96;82.60
67942;SHT31;54731;42.600;23.476;2023-01-28T08:00:39;-0.96;82.26
67942;SHT31;54731;42.600;23.476;2023-01-28T08:03:06;-1.01;82.26
67942;SHT31;54731;42.600;23.476;2023-01-28T08:05:46;-0.99;82.48
67942;SHT31;54731;42.600;23.476;2023-01-28T08:08:12;-1.05;82.54
67942;SHT31;54731;42.600;23.476;2023-01-28T08:10:38;-1.01;82.62
67942;SHT31;54731;42.600;23.476;2023-01-28T08:13:04;-1.03;82.62
67942;SHT31;54731;42.600;23.476;2023-01-28T08:15:29;-0.98;82.46
67942;SHT31;54731;42.600;23.476;2023-01-28T08:17:56;-0.89;81.98
67942;SHT31;54731;42.600;23.476;2023-01-28T08:20:23;-0.92;81.72
67942;SHT31;54731;42.600;23.476;2023-01-28T08:22:48;-0.92;82.13
67942;SHT31;54731;42.600;23.476;2023-01-28T08:25:14;-0.88;82.29
67942;SHT31;54731;42.600;23.476;2023-01-28T08:27:39;-0.85;82.35
67942;SHT31;54731;42.600;23.476;2023-01-28T08:30:05;-0.81;82.15
67942;SHT31;54731;42.600;23.476;2023-01-28T08:32:31;-0.82;82.20
67942;SHT31;54731;42.600;23.476;2023-01-28T08:34:56;-0.84;82.37
67942;SHT31;54731;42.600;23.476;2023-01-28T08:37:22;-0.82;81.85
67942;SHT31;54731;42.600;23.476;2023-01-28T08:39:49;-0.80;81.79
67942;SHT31;54731;42.600;23.476;2023-01-28T08:42:14;-0.75;81.78
67942;SHT31;54731;42.600;23.476;2023-01-28T08:44:39;-0.80;81.54
67942;SHT31;54731;42.600;23.476;2023-01-28T08:47:05;-0.74;81.62
67942;SHT31;54731;42.600;23.476;2023-01-28T08:49:30;-0.71;81.75
67942;SHT31;54731;42.600;23.476;2023-01-28T08:51:55;-0.65;81.56
67942;SHT31;54731;42.600;23.476;2023-01-28T08:54:23;-0.62;81.46
67942;SHT31;54731;42.600;23.476;2023-01-28T08:56:49;-0.58;81.23
67942;SHT31;54731;42.600;23.476;2023-01-28T08:59:14;-0.60;81.28
67942;SHT31;54731;42.600;23.476;2023-01-28T09:01:40;-0.50;81.30
67942;SHT31;54731;42.600;23.476;2023-01-28T09:04:05;-0.37;80.76
67942;SHT31;54731;42.600;23.476;2023-01-28T09:06:31;-0.33;80.61
67942;SHT31;54731;42.600;23.476;2023-01-28T09:09:00;-0.23;80.37
67942;SHT31;54731;42.600;23.476;2023-01-28T09:11:26;-0.18;80.52
67942;SHT31;54731;42.600;23.476;2023-01-28T09:13:52;-0.09;79.96
67942;SHT31;54731;42.600;23.476;2023-01-28T09:16:18;0.00;79.94
67942;SHT31;54731;42.600;23.476;2023-01-28T09:18:43;-0.07;79.99
67942;SHT31;54731;42.600;23.476;2023-01-28T09:21:08;-0.10;80.35
67942;SHT31;54731;42.600;23.476;2023-01-28T09:23:37;-0.33;79.96
67942;SHT31;54731;42.600;23.476;2023-01-28T09:26:03;-0.28;80.58
67942;SHT31;54731;42.600;23.476;2023-01-28T09:28:29;-0.20;80.19
67942;SHT31;54731;42.600;23.476;2023-01-28T09:31:09;-0.20;80.10
67942;SHT31;54731;42.600;23.476;2023-01-28T09:33:35;-0.16;80.39
67942;SHT31;54731;42.600;23.476;2023-01-28T09:36:03;-0.28;79.95
67942;SHT31;54731;42.600;23.476;2023-01-28T09:38:29;-0.24;80.74
67942;SHT31;54731;42.600;23.476;2023-01-28T09:40:55;-0.17;80.23
67942;SHT31;54731;42.600;23.476;2023-01-28T09:46:29;-0.11;79.85
67942;SHT31;54731;42.600;23.476;2023-01-28T09:48:57;-0.09;80.24
67942;SHT31;54731;42.600;23.476;2023-01-28T09:53:56;-0.10;80.16
67942;SHT31;54731;42.600;23.476;2023-01-28T09:56:31;-0.11;80.43
67942;SHT31;54731;42.600;23.476;2023-01-28T10:01:42;-0.16;80.97
67942;SHT31;54731;42.600;23.476;2023-01-28T10:17:51;0.13;81.22
67942;SHT31;54731;42.600;23.476;2023-01-28T10:23:00;0.11;80.92
67942;SHT31;54731;42.600;23.476;2023-01-28T10:25:30;0.14;81.00
67942;SHT31;54731;42.600;23.476;2023-01-28T10:27:57;-0.10;80.92
67942;SHT31;54731;42.600;23.476;2023-01-28T10:30:41;0.00;81.09
67942;SHT31;54731;42.600;23.476;2023-01-28T10:35:53;0.04;80.02
67942;SHT31;54731;42.600;23.476;2023-01-28T10:38:21;0.04;80.06
67942;SHT31;54731;42.600;23.476;2023-01-28T10:40:48;-0.03;80.30
67942;SHT31;54731;42.600;23.476;2023-01-28T10:43:21;-0.06;80.30
67942;SHT31;54731;42.600;23.476;2023-01-28T10:45:56;-0.09;80.26
67942;SHT31;54731;42.600;23.476;2023-01-28T10:48:25;-0.06;79.99
67942;SHT31;54731;42.600;23.476;2023-01-28T10:50:55;-0.18;80.08
67942;SHT31;54731;42.600;23.476;2023-01-28T10:56:03;-0.10;80.26
67942;SHT31;54731;42.600;23.476;2023-01-28T10:58:32;-0.06;80.13
67942;SHT31;54731;42.600;23.476;2023-01-28T11:01:00;-0.13;79.92
67942;SHT31;54731;42.600;23.476;2023-01-28T11:03:27;-0.09;80.36
67942;SHT31;54731;42.600;23.476;2023-01-28T11:05:54;-0.06;80.05
67942;SHT31;54731;42.600;23.476;2023-01-28T11:08:20;-0.07;80.05
67942;SHT31;54731;42.600;23.476;2023-01-28T11:10:47;0.00;79.86
67942;SHT31;54731;42.600;23.476;2023-01-28T11:13:19;0.00;79.71
67942;SHT31;54731;42.600;23.476;2023-01-28T11:15:52;0.05;79.94
67942;SHT31;54731;42.600;23.476;2023-01-28T11:18:30;0.03;79.90
67942;SHT31;54731;42.600;23.476;2023-01-28T11:21:02;-0.11;79.60
67942;SHT31;54731;42.600;23.476;2023-01-28T11:23:32;-0.10;79.95
67942;SHT31;54731;42.600;23.476;2023-01-28T11:26:07;-0.10;80.43
67942;SHT31;54731;42.600;23.476;2023-01-28T11:28:40;-0.09;79.69
67942;SHT31;54731;42.600;23.476;2023-01-28T11:31:07;-0.02;79.92
67942;SHT31;54731;42.600;23.476;2023-01-28T11:33:38;0.00;79.54
67942;SHT31;54731;42.600;23.476;2023-01-28T11:39:02;0.14;79.24
67942;SHT31;54731;42.600;23.476;2023-01-28T11:41:35;0.24;79.10
67942;SHT31;54731;42.600;23.476;2023-01-28T11:44:17;0.29;78.80
67942;SHT31;54731;42.600;23.476;2023-01-28T11:55:27;0.41;79.14
67942;SHT31;54731;42.600;23.476;2023-01-28T11:58:05;0.51;79.12
67942;SHT31;54731;42.600;23.476;2023-01-28T12:01:00;0.51;78.66
67942;SHT31;54731;42.600;23.476;2023-01-28T12:08:55;0.61;78.68
67942;SHT31;54731;42.600;23.476;2023-01-28T12:14:32;0.59;77.83
67942;SHT31;54731;42.600;23.476;2023-01-28T12:23:40;0.49;77.85
67942;SHT31;54731;42.600;23.476;2023-01-28T12:32:02;0.44;78.97
67942;SHT31;54731;42.600;23.476;2023-01-28T12:38:15;0.44;78.49
67942;SHT31;54731;42.600;23.476;2023-01-28T12:43:18;0.55;78.39
67942;SHT31;54731;42.600;23.476;2023-01-28T12:45:50;0.57;78.23
67942;SHT31;54731;42.600;23.476;2023-01-28T12:48:23;0.62;77.91
67942;SHT31;54731;42.600;23.476;2023-01-28T12:50:56;0.54;77.56
67942;SHT31;54731;42.600;23.476;2023-01-28T12:53:47;0.47;77.72
67942;SHT31;54731;42.600;23.476;2023-01-28T12:56:19;0.49;78.05
67942;SHT31;54731;42.600;23.476;2023-01-28T12:59:51;0.61;78.37
67942;SHT31;54731;42.600;23.476;2023-01-28T13:02:28;0.66;78.00
67942;SHT31;54731;42.600;23.476;2023-01-28T13:05:10;0.70;78.48
67942;SHT31;54731;42.600;23.476;2023-01-28T13:07:46;0.69;78.02
67942;SHT31;54731;42.600;23.476;2023-01-28T13:12:53;0.73;77.56
67942;SHT31;54731;42.600;23.476;2023-01-28T13:15:19;0.80;77.54
67942;SHT31;54731;42.600;23.476;2023-01-28T13:17:58;0.73;77.46
67942;SHT31;54731;42.600;23.476;2023-01-28T13:20:37;0.76;77.84
67942;SHT31;54731;42.600;23.476;2023-01-28T13:23:19;0.85;77.80
67942;SHT31;54731;42.600;23.476;2023-01-28T13:25:50;1.00;77.29
67942;SHT31;54731;42.600;23.476;2023-01-28T13:28:32;0.96;76.93
67942;SHT31;54731;42.600;23.476;2023-01-28T13:31:09;0.83;77.07
67942;SHT31;54731;42.600;23.476;2023-01-28T13:33:38;0.82;76.69
67942;SHT31;54731;42.600;23.476;2023-01-28T13:36:26;0.82;76.80
67942;SHT31;54731;42.600;23.476;2023-01-28T13:41:43;0.76;77.37
67942;SHT31;54731;42.600;23.476;2023-01-28T13:44:33;0.75;77.59
67942;SHT31;54731;42.600;23.476;2023-01-28T13:47:14;0.80;77.41
67942;SHT31;54731;42.600;23.476;2023-01-28T13:49:43;0.79;77.26
67942;SHT31;54731;42.600;23.476;2023-01-28T13:52:35;0.75;77.17
67942;SHT31;54731;42.600;23.476;2023-01-28T13:55:05;0.80;77.82
67942;SHT31;54731;42.600;23.476;2023-01-28T14:12:04;0.55;77.46
67942;SHT31;54731;42.600;23.476;2023-01-28T14:17:51;0.47;77.47
67942;SHT31;54731;42.600;23.476;2023-01-28T14:20:20;0.45;78.28
67942;SHT31;54731;42.600;23.476;2023-01-28T14:22:48;0.40;78.31
67942;SHT31;54731;42.600;23.476;2023-01-28T14:25:19;0.31;78.90
67942;SHT31;54731;42.600;23.476;2023-01-28T14:27:50;0.41;78.32
67942;SHT31;54731;42.600;23.476;2023-01-28T14:30:57;0.34;78.14
67942;SHT31;54731;42.600;23.476;2023-01-28T14:33:26;0.38;77.44
67942;SHT31;54731;42.600;23.476;2023-01-28T14:35:51;0.38;77.60
67942;SHT31;54731;42.600;23.476;2023-01-28T14:38:21;0.31;77.56
67942;SHT31;54731;42.600;23.476;2023-01-28T14:40:53;0.24;77.96
67942;SHT31;54731;42.600;23.476;2023-01-28T14:43:22;0.21;77.58
67942;SHT31;54731;42.600;23.476;2023-01-28T14:57:08;0.08;78.54
67942;SHT31;54731;42.600;23.476;2023-01-28T14:59:50;-0.02;78.56
67942;SHT31;54731;42.600;23.476;2023-01-28T15:02:21;0.00;78.43
67942;SHT31;54731;42.600;23.476;2023-01-28T15:04:48;0.03;78.42
67942;SHT31;54731;42.600;23.476;2023-01-28T15:07:23;0.01;78.65
67942;SHT31;54731;42.600;23.476;2023-01-28T15:10:06;0.00;78.75
67942;SHT31;54731;42.600;23.476;2023-01-28T15:12:40;-0.02;78.59
67942;SHT31;54731;42.600;23.476;2023-01-28T15:15:15;-0.14;78.61
67942;SHT31;54731;42.600;23.476;2023-01-28T15:17:42;-0.18;78.96
67942;SHT31;54731;42.600;23.476;2023-01-28T15:20:07;-0.17;78.56
67942;SHT31;54731;42.600;23.476;2023-01-28T15:22:33;-0.20;78.65
67942;SHT31;54731;42.600;23.476;2023-01-28T15:24:58;-0.21;78.94
67942;SHT31;54731;42.600;23.476;2023-01-28T15:27:28;-0.27;78.28
67942;SHT31;54731;42.600;23.476;2023-01-28T15:29:56;-0.28;78.83
67942;SHT31;54731;42.600;23.476;2023-01-28T15:32:29;-0.34;78.43
67942;SHT31;54731;42.600;23.476;2023-01-28T15:34:57;-0.31;78.65
67942;SHT31;54731;42.600;23.476;2023-01-28T15:37:22;-0.31;78.79
67942;SHT31;54731;42.600;23.476;2023-01-28T15:39:59;-0.31;78.61
67942;SHT31;54731;42.600;23.476;2023-01-28T15:42:24;-0.30;78.62
67942;SHT31;54731;42.600;23.476;2023-01-28T15:44:50;-0.30;78.55
67942;SHT31;54731;42.600;23.476;2023-01-28T15:47:36;-0.30;78.76
67942;SHT31;54731;42.600;23.476;2023-01-28T15:50:04;-0.31;78.33
67942;SHT31;54731;42.600;23.476;2023-01-28T15:52:36;-0.34;77.99
67942;SHT31;54731;42.600;23.476;2023-01-28T15:55:02;-0.36;78.09
67942;SHT31;54731;42.600;23.476;2023-01-28T15:57:30;-0.38;78.34
67942;SHT31;54731;42.600;23.476;2023-01-28T16:02:30;-0.44;78.77
67942;SHT31;54731;42.600;23.476;2023-01-28T16:05:04;-0.37;78.31
67942;SHT31;54731;42.600;23.476;2023-01-28T16:07:31;-0.37;78.10
67942;SHT31;54731;42.600;23.476;2023-01-28T16:09:59;-0.36;78.26
67942;SHT31;54731;42.600;23.476;2023-01-28T16:12:25;-0.34;78.55
67942;SHT31;54731;42.600;23.476;2023-01-28T16:14:54;-0.36;78.55
67942;SHT31;54731;42.600;23.476;2023-01-28T16:17:26;-0.36;78.56
67942;SHT31;54731;42.600;23.476;2023-01-28T16:19:57;-0.37;78.73
67942;SHT31;54731;42.600;23.476;2023-01-28T16:22:35;-0.38;78.85
67942;SHT31;54731;42.600;23.476;2023-01-28T16:25:03;-0.41;78.86
67942;SHT31;54731;42.600;23.476;2023-01-28T16:27:29;-0.42;79.15
67942;SHT31;54731;42.600;23.476;2023-01-28T16:29:54;-0.40;79.17
67942;SHT31;54731;42.600;23.476;2023-01-28T16:34:57;-0.41;79.05
67942;SHT31;54731;42.600;23.476;2023-01-28T16:37:23;-0.47;79.41
67942;SHT31;54731;42.600;23.476;2023-01-28T16:39:48;-0.45;79.65
67942;SHT31;54731;42.600;23.476;2023-01-28T16:42:14;-0.45;79.60
67942;SHT31;54731;42.600;23.476;2023-01-28T16:44:39;-0.45;79.68
67942;SHT31;54731;42.600;23.476;2023-01-28T16:47:04;-0.48;79.91
67942;SHT31;54731;42.600;23.476;2023-01-28T16:49:30;-0.45;79.91
67942;SHT31;54731;42.600;23.476;2023-01-28T16:51:55;-0.41;79.86
67942;SHT31;54731;42.600;23.476;2023-01-28T16:54:21;-0.38;79.88
67942;SHT31;54731;42.600;23.476;2023-01-28T16:56:46;-0.38;79.77
67942;SHT31;54731;42.600;23.476;2023-01-28T16:59:13;-0.45;79.82
67942;SHT31;54731;42.600;23.476;2023-01-28T17:01:38;-0.40;79.36
67942;SHT31;54731;42.600;23.476;2023-01-28T17:04:04;-0.50;79.91
67942;SHT31;54731;42.600;23.476;2023-01-28T17:06:29;-0.45;79.97
67942;SHT31;54731;42.600;23.476;2023-01-28T17:08:54;-0.48;80.04
67942;SHT31;54731;42.600;23.476;2023-01-28T17:11:19;-0.47;79.41
67942;SHT31;54731;42.600;23.476;2023-01-28T17:13:45;-0.48;79.67
67942;SHT31;54731;42.600;23.476;2023-01-28T17:16:10;-0.50;79.66
67942;SHT31;54731;42.600;23.476;2023-01-28T17:18:35;-0.53;79.89
67942;SHT31;54731;42.600;23.476;2023-01-28T17:21:05;-0.53;79.90
67942;SHT31;54731;42.600;23.476;2023-01-28T17:23:31;-0.64;79.64
67942;SHT31;54731;42.600;23.476;2023-01-28T17:26:03;-0.61;80.19
67942;SHT31;54731;42.600;23.476;2023-01-28T17:28:28;-0.67;80.07
67942;SHT31;54731;42.600;23.476;2023-01-28T17:30:54;-0.67;80.22
67942;SHT31;54731;42.600;23.476;2023-01-28T17:33:19;-0.70;80.46
67942;SHT31;54731;42.600;23.476;2023-01-28T17:35:45;-0.70;81.12